Terminal Aerodrome Forecast
Issued by NWS

Home | Current Version | Previous Version | Text Only | Print | Product List | Glossary On
Versions: 1 2 3 4 5 6 7 8 9 10 11 12 13 14 15
609
FTUS43 KBIS 210534
TAFMOT
TAF
KMOT 210534Z 2106/2206 25007KT P6SM FEW300
     FM211200 26003KT P6SM FEW300
     FM211700 17004KT P6SM FEW300
     FM220000 19004KT P6SM SKC=

USA.gov is the U.S. government's official web portal to all federal, state and local government web resources and services.